sensor_id;sensor_type;location;lat;lon;timestamp;P1;durP1;ratioP1;P2;durP2;ratioP2
16294;SDS011;8255;49.560;8.244;2022-09-01T00:01:23;4.55;;;4.18;;
16294;SDS011;8255;49.560;8.244;2022-09-01T00:03:51;4.55;;;4.25;;
16294;SDS011;8255;49.560;8.244;2022-09-01T00:06:19;4.47;;;4.18;;
16294;SDS011;8255;49.560;8.244;2022-09-01T00:08:46;4.32;;;4.00;;
16294;SDS011;8255;49.560;8.244;2022-09-01T00:11:13;4.10;;;3.90;;
16294;SDS011;8255;49.560;8.244;2022-09-01T00:13:39;4.32;;;4.00;;
16294;SDS011;8255;49.560;8.244;2022-09-01T00:16:06;3.90;;;3.70;;
16294;SDS011;8255;49.560;8.244;2022-09-01T00:18:32;4.32;;;4.03;;
16294;SDS011;8255;49.560;8.244;2022-09-01T00:21:00;4.07;;;3.75;;
16294;SDS011;8255;49.560;8.244;2022-09-01T00:23:27;3.83;;;3.63;;
16294;SDS011;8255;49.560;8.244;2022-09-01T00:25:54;4.57;;;3.85;;
16294;SDS011;8255;49.560;8.244;2022-09-01T00:28:20;4.05;;;3.80;;
16294;SDS011;8255;49.560;8.244;2022-09-01T00:30:47;4.15;;;3.85;;
16294;SDS011;8255;49.560;8.244;2022-09-01T00:33:14;3.75;;;3.55;;
16294;SDS011;8255;49.560;8.244;2022-09-01T00:35:40;4.10;;;3.80;;
16294;SDS011;8255;49.560;8.244;2022-09-01T00:38:07;3.65;;;3.35;;
16294;SDS011;8255;49.560;8.244;2022-09-01T00:40:34;4.05;;;3.78;;
16294;SDS011;8255;49.560;8.244;2022-09-01T00:43:09;3.42;;;3.25;;
16294;SDS011;8255;49.560;8.244;2022-09-01T00:45:36;3.35;;;3.15;;
16294;SDS011;8255;49.560;8.244;2022-09-01T00:48:02;3.55;;;3.33;;
16294;SDS011;8255;49.560;8.244;2022-09-01T00:50:30;3.60;;;3.40;;
16294;SDS011;8255;49.560;8.244;2022-09-01T00:52:57;3.65;;;3.45;;
16294;SDS011;8255;49.560;8.244;2022-09-01T00:55:29;3.50;;;3.30;;
16294;SDS011;8255;49.560;8.244;2022-09-01T00:57:58;3.80;;;3.60;;
16294;SDS011;8255;49.560;8.244;2022-09-01T01:00:26;3.45;;;3.28;;
16294;SDS011;8255;49.560;8.244;2022-09-01T01:02:54;3.70;;;3.50;;
16294;SDS011;8255;49.560;8.244;2022-09-01T01:05:21;4.25;;;3.95;;
16294;SDS011;8255;49.560;8.244;2022-09-01T01:07:47;3.45;;;3.28;;
16294;SDS011;8255;49.560;8.244;2022-09-01T01:10:15;3.50;;;3.40;;
16294;SDS011;8255;49.560;8.244;2022-09-01T01:12:42;4.53;;;3.22;;
16294;SDS011;8255;49.560;8.244;2022-09-01T01:15:11;3.28;;;3.17;;
16294;SDS011;8255;49.560;8.244;2022-09-01T01:17:38;3.40;;;3.10;;
16294;SDS011;8255;49.560;8.244;2022-09-01T01:20:05;3.17;;;3.08;;
16294;SDS011;8255;49.560;8.244;2022-09-01T01:22:53;3.25;;;3.05;;
16294;SDS011;8255;49.560;8.244;2022-09-01T01:25:35;3.60;;;3.30;;
16294;SDS011;8255;49.560;8.244;2022-09-01T01:28:03;3.35;;;3.15;;
16294;SDS011;8255;49.560;8.244;2022-09-01T01:30:30;3.30;;;3.10;;
16294;SDS011;8255;49.560;8.244;2022-09-01T01:33:00;3.40;;;3.20;;
16294;SDS011;8255;49.560;8.244;2022-09-01T01:35:26;4.60;;;3.33;;
16294;SDS011;8255;49.560;8.244;2022-09-01T01:37:53;3.58;;;3.38;;
16294;SDS011;8255;49.560;8.244;2022-09-01T01:40:20;3.35;;;3.13;;
16294;SDS011;8255;49.560;8.244;2022-09-01T01:42:49;3.20;;;3.00;;
16294;SDS011;8255;49.560;8.244;2022-09-01T01:45:19;3.08;;;2.97;;
16294;SDS011;8255;49.560;8.244;2022-09-01T01:47:47;3.40;;;3.20;;
16294;SDS011;8255;49.560;8.244;2022-09-01T01:50:17;2.85;;;2.75;;
16294;SDS011;8255;49.560;8.244;2022-09-01T01:52:44;3.00;;;2.80;;
16294;SDS011;8255;49.560;8.244;2022-09-01T01:55:11;2.75;;;2.65;;
16294;SDS011;8255;49.560;8.244;2022-09-01T01:57:43;3.35;;;3.15;;
16294;SDS011;8255;49.560;8.244;2022-09-01T02:00:17;2.92;;;2.72;;
16294;SDS011;8255;49.560;8.244;2022-09-01T02:02:45;3.15;;;2.92;;
16294;SDS011;8255;49.560;8.244;2022-09-01T02:05:20;2.88;;;2.75;;
16294;SDS011;8255;49.560;8.244;2022-09-01T02:07:50;2.90;;;2.80;;
16294;SDS011;8255;49.560;8.244;2022-09-01T02:10:21;2.95;;;2.75;;
16294;SDS011;8255;49.560;8.244;2022-09-01T02:12:48;3.05;;;2.80;;
16294;SDS011;8255;49.560;8.244;2022-09-01T02:15:16;2.90;;;2.80;;
16294;SDS011;8255;49.560;8.244;2022-09-01T02:17:43;3.00;;;2.80;;
16294;SDS011;8255;49.560;8.244;2022-09-01T02:20:10;2.92;;;2.83;;
16294;SDS011;8255;49.560;8.244;2022-09-01T02:22:38;2.90;;;2.70;;
16294;SDS011;8255;49.560;8.244;2022-09-01T02:25:04;2.80;;;2.70;;
16294;SDS011;8255;49.560;8.244;2022-09-01T02:27:31;3.05;;;2.95;;
16294;SDS011;8255;49.560;8.244;2022-09-01T02:30:04;3.13;;;2.90;;
16294;SDS011;8255;49.560;8.244;2022-09-01T02:32:37;2.70;;;2.50;;
16294;SDS011;8255;49.560;8.244;2022-09-01T02:35:06;3.00;;;2.80;;
16294;SDS011;8255;49.560;8.244;2022-09-01T02:37:34;2.90;;;2.80;;
16294;SDS011;8255;49.560;8.244;2022-09-01T02:40:01;3.13;;;2.88;;
16294;SDS011;8255;49.560;8.244;2022-09-01T02:42:27;2.72;;;2.50;;
16294;SDS011;8255;49.560;8.244;2022-09-01T02:44:54;2.75;;;2.65;;
16294;SDS011;8255;49.560;8.244;2022-09-01T02:47:20;2.95;;;2.75;;
16294;SDS011;8255;49.560;8.244;2022-09-01T02:49:49;2.80;;;2.70;;
16294;SDS011;8255;49.560;8.244;2022-09-01T02:52:15;2.88;;;2.72;;
16294;SDS011;8255;49.560;8.244;2022-09-01T02:54:45;2.85;;;2.65;;
16294;SDS011;8255;49.560;8.244;2022-09-01T02:57:15;2.90;;;2.80;;
16294;SDS011;8255;49.560;8.244;2022-09-01T02:59:42;2.85;;;2.75;;
16294;SDS011;8255;49.560;8.244;2022-09-01T03:02:09;2.30;;;2.20;;
16294;SDS011;8255;49.560;8.244;2022-09-01T03:04:35;2.53;;;2.42;;
16294;SDS011;8255;49.560;8.244;2022-09-01T03:07:04;2.55;;;2.35;;
16294;SDS011;8255;49.560;8.244;2022-09-01T03:09:33;2.60;;;2.40;;
16294;SDS011;8255;49.560;8.244;2022-09-01T03:11:59;2.53;;;2.40;;
16294;SDS011;8255;49.560;8.244;2022-09-01T03:14:26;2.22;;;2.13;;
16294;SDS011;8255;49.560;8.244;2022-09-01T03:16:54;2.55;;;2.35;;
16294;SDS011;8255;49.560;8.244;2022-09-01T03:19:21;2.72;;;2.47;;
16294;SDS011;8255;49.560;8.244;2022-09-01T03:21:48;2.47;;;2.30;;
16294;SDS011;8255;49.560;8.244;2022-09-01T03:24:20;2.40;;;2.30;;
16294;SDS011;8255;49.560;8.244;2022-09-01T03:26:48;2.00;;;1.90;;
16294;SDS011;8255;49.560;8.244;2022-09-01T03:29:16;2.28;;;2.08;;
16294;SDS011;8255;49.560;8.244;2022-09-01T03:31:43;2.35;;;2.25;;
16294;SDS011;8255;49.560;8.244;2022-09-01T03:34:09;2.88;;;2.30;;
16294;SDS011;8255;49.560;8.244;2022-09-01T03:36:42;2.50;;;2.40;;
16294;SDS011;8255;49.560;8.244;2022-09-01T03:39:16;2.60;;;2.30;;
16294;SDS011;8255;49.560;8.244;2022-09-01T03:41:44;2.70;;;2.50;;
16294;SDS011;8255;49.560;8.244;2022-09-01T03:44:13;2.25;;;2.15;;
16294;SDS011;8255;49.560;8.244;2022-09-01T03:46:41;2.53;;;2.42;;
16294;SDS011;8255;49.560;8.244;2022-09-01T03:49:08;2.45;;;2.35;;
16294;SDS011;8255;49.560;8.244;2022-09-01T03:51:40;2.38;;;2.28;;
16294;SDS011;8255;49.560;8.244;2022-09-01T03:54:08;2.38;;;2.28;;
16294;SDS011;8255;49.560;8.244;2022-09-01T03:56:35;2.40;;;2.30;;
16294;SDS011;8255;49.560;8.244;2022-09-01T03:59:07;2.40;;;2.30;;
16294;SDS011;8255;49.560;8.244;2022-09-01T04:01:41;2.50;;;2.40;;
16294;SDS011;8255;49.560;8.244;2022-09-01T04:04:08;2.75;;;2.55;;
16294;SDS011;8255;49.560;8.244;2022-09-01T04:06:38;2.40;;;2.30;;
16294;SDS011;8255;49.560;8.244;2022-09-01T04:09:04;2.53;;;2.33;;
16294;SDS011;8255;49.560;8.244;2022-09-01T04:11:31;2.30;;;2.20;;
16294;SDS011;8255;49.560;8.244;2022-09-01T04:13:58;2.58;;;2.38;;
16294;SDS011;8255;49.560;8.244;2022-09-01T04:16:26;2.40;;;2.30;;
16294;SDS011;8255;49.560;8.244;2022-09-01T04:19:11;2.53;;;2.42;;
16294;SDS011;8255;49.560;8.244;2022-09-01T04:21:44;2.80;;;2.60;;
16294;SDS011;8255;49.560;8.244;2022-09-01T04:24:12;2.60;;;2.45;;
16294;SDS011;8255;49.560;8.244;2022-09-01T04:26:40;2.75;;;2.55;;
16294;SDS011;8255;49.560;8.244;2022-09-01T04:29:06;2.47;;;2.38;;
16294;SDS011;8255;49.560;8.244;2022-09-01T04:31:37;2.50;;;2.40;;
16294;SDS011;8255;49.560;8.244;2022-09-01T04:34:04;2.47;;;2.28;;
16294;SDS011;8255;49.560;8.244;2022-09-01T04:36:37;2.90;;;2.05;;
16294;SDS011;8255;49.560;8.244;2022-09-01T04:39:04;2.47;;;2.38;;
16294;SDS011;8255;49.560;8.244;2022-09-01T04:41:34;2.72;;;2.58;;
16294;SDS011;8255;49.560;8.244;2022-09-01T04:44:03;2.35;;;2.17;;
16294;SDS011;8255;49.560;8.244;2022-09-01T04:46:33;2.40;;;2.30;;
16294;SDS011;8255;49.560;8.244;2022-09-01T04:49:03;2.53;;;2.42;;
16294;SDS011;8255;49.560;8.244;2022-09-01T04:51:34;2.60;;;2.13;;
16294;SDS011;8255;49.560;8.244;2022-09-01T04:54:03;2.55;;;2.33;;
16294;SDS011;8255;49.560;8.244;2022-09-01T04:56:33;2.50;;;2.40;;
16294;SDS011;8255;49.560;8.244;2022-09-01T04:59:07;2.53;;;2.42;;
16294;SDS011;8255;49.560;8.244;2022-09-01T05:01:35;2.28;;;2.17;;
16294;SDS011;8255;49.560;8.244;2022-09-01T05:04:09;2.80;;;2.60;;
16294;SDS011;8255;49.560;8.244;2022-09-01T05:06:39;4.55;;;2.60;;
16294;SDS011;8255;49.560;8.244;2022-09-01T05:09:06;4.25;;;2.20;;
16294;SDS011;8255;49.560;8.244;2022-09-01T05:12:00;2.40;;;2.30;;
16294;SDS011;8255;49.560;8.244;2022-09-01T05:14:35;2.22;;;2.22;;
16294;SDS011;8255;49.560;8.244;2022-09-01T05:17:02;2.67;;;2.47;;
16294;SDS011;8255;49.560;8.244;2022-09-01T05:19:35;2.40;;;2.30;;
16294;SDS011;8255;49.560;8.244;2022-09-01T05:22:03;2.30;;;2.20;;
16294;SDS011;8255;49.560;8.244;2022-09-01T05:24:31;2.28;;;2.17;;
16294;SDS011;8255;49.560;8.244;2022-09-01T05:27:02;2.63;;;2.42;;
16294;SDS011;8255;49.560;8.244;2022-09-01T05:29:33;4.00;;;2.53;;
16294;SDS011;8255;49.560;8.244;2022-09-01T05:32:03;2.40;;;2.30;;
16294;SDS011;8255;49.560;8.244;2022-09-01T05:34:33;2.22;;;2.13;;
16294;SDS011;8255;49.560;8.244;2022-09-01T05:37:03;2.30;;;2.20;;
16294;SDS011;8255;49.560;8.244;2022-09-01T05:39:30;2.38;;;2.17;;
16294;SDS011;8255;49.560;8.244;2022-09-01T05:41:57;2.60;;;2.50;;
16294;SDS011;8255;49.560;8.244;2022-09-01T05:44:24;2.40;;;2.30;;
16294;SDS011;8255;49.560;8.244;2022-09-01T05:46:52;4.05;;;2.50;;
16294;SDS011;8255;49.560;8.244;2022-09-01T05:49:19;2.25;;;2.15;;
16294;SDS011;8255;49.560;8.244;2022-09-01T05:51:48;2.95;;;2.47;;
16294;SDS011;8255;49.560;8.244;2022-09-01T05:54:18;2.50;;;2.40;;
16294;SDS011;8255;49.560;8.244;2022-09-01T05:56:45;2.35;;;2.25;;
16294;SDS011;8255;49.560;8.244;2022-09-01T05:59:15;2.70;;;2.60;;
16294;SDS011;8255;49.560;8.244;2022-09-01T06:01:44;2.83;;;2.60;;
16294;SDS011;8255;49.560;8.244;2022-09-01T06:04:12;2.28;;;2.17;;
16294;SDS011;8255;49.560;8.244;2022-09-01T06:06:40;2.60;;;2.40;;
16294;SDS011;8255;49.560;8.244;2022-09-01T06:09:09;2.30;;;2.20;;
16294;SDS011;8255;49.560;8.244;2022-09-01T06:11:38;3.08;;;2.78;;
16294;SDS011;8255;49.560;8.244;2022-09-01T06:14:05;2.30;;;2.20;;
16294;SDS011;8255;49.560;8.244;2022-09-01T06:16:32;2.28;;;2.17;;
16294;SDS011;8255;49.560;8.244;2022-09-01T06:19:01;3.28;;;2.65;;
16294;SDS011;8255;49.560;8.244;2022-09-01T06:21:27;2.40;;;2.30;;
16294;SDS011;8255;49.560;8.244;2022-09-01T06:23:55;2.33;;;2.20;;
16294;SDS011;8255;49.560;8.244;2022-09-01T06:26:23;2.50;;;2.40;;
16294;SDS011;8255;49.560;8.244;2022-09-01T06:28:56;2.42;;;2.17;;
16294;SDS011;8255;49.560;8.244;2022-09-01T06:31:25;2.60;;;2.40;;
16294;SDS011;8255;49.560;8.244;2022-09-01T06:33:52;2.60;;;2.40;;
16294;SDS011;8255;49.560;8.244;2022-09-01T06:36:19;2.15;;;2.10;;
16294;SDS011;8255;49.560;8.244;2022-09-01T06:38:48;2.90;;;2.70;;
16294;SDS011;8255;49.560;8.244;2022-09-01T06:41:15;2.60;;;2.40;;
16294;SDS011;8255;49.560;8.244;2022-09-01T06:43:44;3.22;;;2.38;;
16294;SDS011;8255;49.560;8.244;2022-09-01T06:46:11;2.55;;;2.38;;
16294;SDS011;8255;49.560;8.244;2022-09-01T06:48:38;2.55;;;2.45;;
16294;SDS011;8255;49.560;8.244;2022-09-01T06:51:09;4.35;;;2.50;;
16294;SDS011;8255;49.560;8.244;2022-09-01T06:53:38;3.75;;;2.10;;
16294;SDS011;8255;49.560;8.244;2022-09-01T06:56:07;2.33;;;2.17;;
16294;SDS011;8255;49.560;8.244;2022-09-01T06:58:38;3.40;;;2.33;;
16294;SDS011;8255;49.560;8.244;2022-09-01T07:01:07;4.82;;;2.33;;
16294;SDS011;8255;49.560;8.244;2022-09-01T07:03:40;5.50;;;2.40;;
16294;SDS011;8255;49.560;8.244;2022-09-01T07:06:14;3.45;;;2.38;;
16294;SDS011;8255;49.560;8.244;2022-09-01T07:08:59;4.72;;;2.13;;
16294;SDS011;8255;49.560;8.244;2022-09-01T07:11:30;2.78;;;2.50;;
16294;SDS011;8255;49.560;8.244;2022-09-01T07:13:59;5.13;;;2.92;;
16294;SDS011;8255;49.560;8.244;2022-09-01T07:16:27;3.63;;;2.38;;
16294;SDS011;8255;49.560;8.244;2022-09-01T07:18:56;3.92;;;2.30;;
16294;SDS011;8255;49.560;8.244;2022-09-01T07:21:26;4.28;;;2.33;;
16294;SDS011;8255;49.560;8.244;2022-09-01T07:23:52;2.28;;;2.17;;
16294;SDS011;8255;49.560;8.244;2022-09-01T07:26:19;2.50;;;2.15;;
16294;SDS011;8255;49.560;8.244;2022-09-01T07:28:48;4.32;;;2.50;;
16294;SDS011;8255;49.560;8.244;2022-09-01T07:31:16;2.60;;;2.40;;
16294;SDS011;8255;49.560;8.244;2022-09-01T07:33:46;3.45;;;2.60;;
16294;SDS011;8255;49.560;8.244;2022-09-01T07:36:15;6.07;;;2.67;;
16294;SDS011;8255;49.560;8.244;2022-09-01T07:38:42;2.90;;;2.65;;
16294;SDS011;8255;49.560;8.244;2022-09-01T07:41:09;2.17;;;2.08;;
16294;SDS011;8255;49.560;8.244;2022-09-01T07:43:55;2.85;;;2.65;;
16294;SDS011;8255;49.560;8.244;2022-09-01T07:46:40;2.53;;;2.33;;
16294;SDS011;8255;49.560;8.244;2022-09-01T07:49:11;2.92;;;2.40;;
16294;SDS011;8255;49.560;8.244;2022-09-01T07:51:39;4.03;;;2.50;;
16294;SDS011;8255;49.560;8.244;2022-09-01T07:54:07;2.70;;;2.50;;
16294;SDS011;8255;49.560;8.244;2022-09-01T07:56:34;2.38;;;2.28;;
16294;SDS011;8255;49.560;8.244;2022-09-01T07:59:01;2.22;;;2.15;;
16294;SDS011;8255;49.560;8.244;2022-09-01T08:01:27;2.80;;;2.60;;
16294;SDS011;8255;49.560;8.244;2022-09-01T08:03:55;2.90;;;2.75;;
16294;SDS011;8255;49.560;8.244;2022-09-01T08:06:23;2.67;;;2.47;;
16294;SDS011;8255;49.560;8.244;2022-09-01T08:08:52;2.88;;;2.55;;
16294;SDS011;8255;49.560;8.244;2022-09-01T08:11:20;2.90;;;2.70;;
16294;SDS011;8255;49.560;8.244;2022-09-01T08:13:47;2.80;;;2.60;;
16294;SDS011;8255;49.560;8.244;2022-09-01T08:16:14;3.35;;;3.08;;
16294;SDS011;8255;49.560;8.244;2022-09-01T08:18:40;3.25;;;3.08;;
16294;SDS011;8255;49.560;8.244;2022-09-01T08:21:12;3.13;;;2.92;;
16294;SDS011;8255;49.560;8.244;2022-09-01T08:23:59;2.65;;;2.50;;
16294;SDS011;8255;49.560;8.244;2022-09-01T08:26:26;2.80;;;2.60;;
16294;SDS011;8255;49.560;8.244;2022-09-01T08:28:53;3.15;;;2.88;;
16294;SDS011;8255;49.560;8.244;2022-09-01T08:31:25;3.13;;;2.90;;
16294;SDS011;8255;49.560;8.244;2022-09-01T08:33:53;3.40;;;3.20;;
16294;SDS011;8255;49.560;8.244;2022-09-01T08:36:19;2.83;;;2.70;;
16294;SDS011;8255;49.560;8.244;2022-09-01T08:38:46;3.00;;;2.80;;
16294;SDS011;8255;49.560;8.244;2022-09-01T08:41:15;3.22;;;2.83;;
16294;SDS011;8255;49.560;8.244;2022-09-01T08:43:45;3.75;;;3.55;;
16294;SDS011;8255;49.560;8.244;2022-09-01T08:46:16;3.38;;;3.17;;
16294;SDS011;8255;49.560;8.244;2022-09-01T08:48:46;4.18;;;3.70;;
16294;SDS011;8255;49.560;8.244;2022-09-01T08:51:16;3.40;;;3.20;;
16294;SDS011;8255;49.560;8.244;2022-09-01T08:53:56;3.35;;;3.15;;
16294;SDS011;8255;49.560;8.244;2022-09-01T08:56:26;4.72;;;3.72;;
16294;SDS011;8255;49.560;8.244;2022-09-01T08:58:54;4.00;;;3.80;;
16294;SDS011;8255;49.560;8.244;2022-09-01T09:01:35;3.90;;;3.60;;
16294;SDS011;8255;49.560;8.244;2022-09-01T09:04:12;3.78;;;3.50;;
16294;SDS011;8255;49.560;8.244;2022-09-01T09:06:42;3.78;;;3.58;;
16294;SDS011;8255;49.560;8.244;2022-09-01T09:09:10;3.80;;;3.60;;
16294;SDS011;8255;49.560;8.244;2022-09-01T09:17:08;3.50;;;3.30;;
16294;SDS011;8255;49.560;8.244;2022-09-01T09:19:36;3.65;;;3.45;;
16294;SDS011;8255;49.560;8.244;2022-09-01T09:22:04;3.60;;;3.30;;
16294;SDS011;8255;49.560;8.244;2022-09-01T09:24:32;3.40;;;3.20;;
16294;SDS011;8255;49.560;8.244;2022-09-01T09:27:14;3.22;;;3.08;;
16294;SDS011;8255;49.560;8.244;2022-09-01T09:29:41;3.72;;;3.50;;
16294;SDS011;8255;49.560;8.244;2022-09-01T09:32:09;3.80;;;3.60;;
16294;SDS011;8255;49.560;8.244;2022-09-01T09:34:36;4.10;;;3.80;;
16294;SDS011;8255;49.560;8.244;2022-09-01T09:37:17;3.70;;;3.28;;
16294;SDS011;8255;49.560;8.244;2022-09-01T09:39:45;3.65;;;3.45;;
16294;SDS011;8255;49.560;8.244;2022-09-01T09:42:26;3.50;;;3.30;;
16294;SDS011;8255;49.560;8.244;2022-09-01T09:44:53;4.38;;;3.20;;
16294;SDS011;8255;49.560;8.244;2022-09-01T09:47:35;3.50;;;3.30;;
16294;SDS011;8255;49.560;8.244;2022-09-01T09:53:08;4.60;;;3.92;;
16294;SDS011;8255;49.560;8.244;2022-09-01T09:55:35;4.05;;;3.85;;
16294;SDS011;8255;49.560;8.244;2022-09-01T09:58:09;4.75;;;3.58;;
16294;SDS011;8255;49.560;8.244;2022-09-01T10:00:36;3.88;;;3.65;;
16294;SDS011;8255;49.560;8.244;2022-09-01T10:03:06;4.38;;;4.07;;
16294;SDS011;8255;49.560;8.244;2022-09-01T10:05:37;4.20;;;4.00;;
16294;SDS011;8255;49.560;8.244;2022-09-01T10:08:05;4.25;;;3.97;;
16294;SDS011;8255;49.560;8.244;2022-09-01T10:10:35;3.88;;;3.60;;
16294;SDS011;8255;49.560;8.244;2022-09-01T10:13:03;3.53;;;3.33;;
16294;SDS011;8255;49.560;8.244;2022-09-01T10:15:30;4.05;;;3.60;;
16294;SDS011;8255;49.560;8.244;2022-09-01T10:17:59;3.50;;;3.30;;
16294;SDS011;8255;49.560;8.244;2022-09-01T10:20:28;5.00;;;3.83;;
16294;SDS011;8255;49.560;8.244;2022-09-01T10:22:54;4.05;;;3.85;;
16294;SDS011;8255;49.560;8.244;2022-09-01T10:25:22;3.95;;;3.75;;
16294;SDS011;8255;49.560;8.244;2022-09-01T10:27:50;4.10;;;3.83;;
16294;SDS011;8255;49.560;8.244;2022-09-01T10:30:18;3.75;;;3.45;;
16294;SDS011;8255;49.560;8.244;2022-09-01T10:32:45;3.53;;;3.25;;
16294;SDS011;8255;49.560;8.244;2022-09-01T10:35:13;3.40;;;3.20;;
16294;SDS011;8255;49.560;8.244;2022-09-01T10:37:41;3.58;;;3.38;;
16294;SDS011;8255;49.560;8.244;2022-09-01T10:40:08;3.17;;;3.00;;
16294;SDS011;8255;49.560;8.244;2022-09-01T10:42:35;3.22;;;2.97;;
16294;SDS011;8255;49.560;8.244;2022-09-01T10:45:02;3.65;;;3.35;;
16294;SDS011;8255;49.560;8.244;2022-09-01T10:47:30;3.35;;;3.15;;
16294;SDS011;8255;49.560;8.244;2022-09-01T10:49:59;3.05;;;2.95;;
16294;SDS011;8255;49.560;8.244;2022-09-01T10:55:14;2.90;;;2.80;;
16294;SDS011;8255;49.560;8.244;2022-09-01T10:57:43;3.17;;;2.92;;
16294;SDS011;8255;49.560;8.244;2022-09-01T11:05:58;3.30;;;2.90;;
16294;SDS011;8255;49.560;8.244;2022-09-01T11:08:39;3.00;;;2.90;;
16294;SDS011;8255;49.560;8.244;2022-09-01T11:11:08;3.03;;;2.80;;
16294;SDS011;8255;49.560;8.244;2022-09-01T11:13:40;3.30;;;3.10;;
16294;SDS011;8255;49.560;8.244;2022-09-01T11:18:53;3.22;;;3.03;;
16294;SDS011;8255;49.560;8.244;2022-09-01T11:21:22;3.58;;;3.38;;
16294;SDS011;8255;49.560;8.244;2022-09-01T11:23:49;3.60;;;3.40;;
16294;SDS011;8255;49.560;8.244;2022-09-01T11:26:44;3.65;;;3.45;;
16294;SDS011;8255;49.560;8.244;2022-09-01T11:31:52;3.45;;;3.15;;
16294;SDS011;8255;49.560;8.244;2022-09-01T11:34:19;3.30;;;3.10;;
16294;SDS011;8255;49.560;8.244;2022-09-01T11:36:52;2.95;;;2.75;;
16294;SDS011;8255;49.560;8.244;2022-09-01T11:42:02;3.08;;;2.88;;
16294;SDS011;8255;49.560;8.244;2022-09-01T11:44:32;3.13;;;3.03;;
16294;SDS011;8255;49.560;8.244;2022-09-01T11:47:02;3.33;;;3.20;;
16294;SDS011;8255;49.560;8.244;2022-09-01T11:49:30;2.95;;;2.85;;
16294;SDS011;8255;49.560;8.244;2022-09-01T11:51:57;3.22;;;3.05;;
16294;SDS011;8255;49.560;8.244;2022-09-01T11:54:24;3.10;;;3.00;;
16294;SDS011;8255;49.560;8.244;2022-09-01T11:56:51;3.42;;;3.22;;
16294;SDS011;8255;49.560;8.244;2022-09-01T12:02:00;3.08;;;2.88;;
16294;SDS011;8255;49.560;8.244;2022-09-01T12:04:29;2.72;;;2.63;;
16294;SDS011;8255;49.560;8.244;2022-09-01T12:06:58;3.10;;;3.00;;
16294;SDS011;8255;49.560;8.244;2022-09-01T12:09:33;3.10;;;3.00;;
16294;SDS011;8255;49.560;8.244;2022-09-01T12:12:00;3.20;;;3.00;;
16294;SDS011;8255;49.560;8.244;2022-09-01T12:14:26;3.10;;;3.00;;
16294;SDS011;8255;49.560;8.244;2022-09-01T12:16:57;3.20;;;3.08;;
16294;SDS011;8255;49.560;8.244;2022-09-01T12:19:26;3.85;;;3.55;;
16294;SDS011;8255;49.560;8.244;2022-09-01T12:21:55;3.38;;;3.15;;
16294;SDS011;8255;49.560;8.244;2022-09-01T12:24:23;3.47;;;3.28;;
16294;SDS011;8255;49.560;8.244;2022-09-01T12:26:50;2.72;;;2.60;;
16294;SDS011;8255;49.560;8.244;2022-09-01T12:29:18;2.90;;;2.72;;
16294;SDS011;8255;49.560;8.244;2022-09-01T12:31:46;3.15;;;3.00;;
16294;SDS011;8255;49.560;8.244;2022-09-01T12:34:26;3.15;;;2.90;;
16294;SDS011;8255;49.560;8.244;2022-09-01T12:37:03;2.92;;;2.80;;
16294;SDS011;8255;49.560;8.244;2022-09-01T12:39:32;3.08;;;2.85;;
16294;SDS011;8255;49.560;8.244;2022-09-01T12:42:09;2.80;;;2.60;;
16294;SDS011;8255;49.560;8.244;2022-09-01T12:44:43;3.35;;;2.90;;
16294;SDS011;8255;49.560;8.244;2022-09-01T12:47:11;3.03;;;2.85;;
16294;SDS011;8255;49.560;8.244;2022-09-01T12:49:41;2.80;;;2.70;;
16294;SDS011;8255;49.560;8.244;2022-09-01T12:52:09;3.15;;;2.97;;
16294;SDS011;8255;49.560;8.244;2022-09-01T12:54:36;2.95;;;2.75;;
16294;SDS011;8255;49.560;8.244;2022-09-01T12:57:03;3.20;;;3.00;;
16294;SDS011;8255;49.560;8.244;2022-09-01T12:59:30;3.05;;;2.85;;
16294;SDS011;8255;49.560;8.244;2022-09-01T13:01:57;3.13;;;2.88;;
16294;SDS011;8255;49.560;8.244;2022-09-01T13:04:25;2.63;;;2.53;;
16294;SDS011;8255;49.560;8.244;2022-09-01T13:06:54;2.47;;;2.38;;
16294;SDS011;8255;49.560;8.244;2022-09-01T13:09:21;2.75;;;2.65;;
16294;SDS011;8255;49.560;8.244;2022-09-01T13:11:48;2.80;;;2.60;;
16294;SDS011;8255;49.560;8.244;2022-09-01T13:14:15;2.72;;;2.63;;
16294;SDS011;8255;49.560;8.244;2022-09-01T13:16:43;3.05;;;2.72;;
16294;SDS011;8255;49.560;8.244;2022-09-01T13:19:09;2.80;;;2.70;;
16294;SDS011;8255;49.560;8.244;2022-09-01T13:21:36;2.67;;;2.47;;
16294;SDS011;8255;49.560;8.244;2022-09-01T13:24:04;2.78;;;2.67;;
16294;SDS011;8255;49.560;8.244;2022-09-01T13:26:31;2.60;;;2.47;;
16294;SDS011;8255;49.560;8.244;2022-09-01T13:28:58;2.92;;;2.80;;
16294;SDS011;8255;49.560;8.244;2022-09-01T13:31:24;3.00;;;2.90;;
16294;SDS011;8255;49.560;8.244;2022-09-01T13:33:52;3.17;;;2.97;;
16294;SDS011;8255;49.560;8.244;2022-09-01T13:36:19;2.30;;;2.20;;
16294;SDS011;8255;49.560;8.244;2022-09-01T13:38:45;2.38;;;2.28;;
16294;SDS011;8255;49.560;8.244;2022-09-01T13:41:13;2.70;;;2.33;;
16294;SDS011;8255;49.560;8.244;2022-09-01T13:43:42;2.63;;;2.42;;
16294;SDS011;8255;49.560;8.244;2022-09-01T13:46:08;2.50;;;2.40;;
16294;SDS011;8255;49.560;8.244;2022-09-01T13:48:35;2.65;;;2.55;;
16294;SDS011;8255;49.560;8.244;2022-09-01T13:51:01;2.30;;;2.20;;
16294;SDS011;8255;49.560;8.244;2022-09-01T13:53:28;2.60;;;2.50;;
16294;SDS011;8255;49.560;8.244;2022-09-01T13:55:54;2.63;;;2.53;;
16294;SDS011;8255;49.560;8.244;2022-09-01T13:58:22;2.70;;;2.50;;
16294;SDS011;8255;49.560;8.244;2022-09-01T14:00:48;2.55;;;2.45;;
16294;SDS011;8255;49.560;8.244;2022-09-01T14:03:17;2.60;;;2.50;;
16294;SDS011;8255;49.560;8.244;2022-09-01T14:05:45;2.88;;;2.67;;
16294;SDS011;8255;49.560;8.244;2022-09-01T14:08:12;2.60;;;2.50;;
16294;SDS011;8255;49.560;8.244;2022-09-01T14:10:40;2.42;;;2.33;;
16294;SDS011;8255;49.560;8.244;2022-09-01T14:13:07;2.83;;;2.67;;
16294;SDS011;8255;49.560;8.244;2022-09-01T14:15:35;2.65;;;2.42;;
16294;SDS011;8255;49.560;8.244;2022-09-01T14:18:02;2.60;;;2.47;;
16294;SDS011;8255;49.560;8.244;2022-09-01T14:20:30;2.40;;;2.30;;
16294;SDS011;8255;49.560;8.244;2022-09-01T14:22:57;2.78;;;2.58;;
16294;SDS011;8255;49.560;8.244;2022-09-01T14:25:24;2.55;;;2.45;;
16294;SDS011;8255;49.560;8.244;2022-09-01T14:27:50;2.75;;;2.65;;
16294;SDS011;8255;49.560;8.244;2022-09-01T14:30:18;2.58;;;2.38;;
16294;SDS011;8255;49.560;8.244;2022-09-01T14:32:46;2.65;;;2.45;;
16294;SDS011;8255;49.560;8.244;2022-09-01T14:35:13;2.55;;;2.45;;
16294;SDS011;8255;49.560;8.244;2022-09-01T14:37:40;2.88;;;2.30;;
16294;SDS011;8255;49.560;8.244;2022-09-01T14:40:08;2.67;;;2.45;;
16294;SDS011;8255;49.560;8.244;2022-09-01T14:42:35;2.40;;;2.30;;
16294;SDS011;8255;49.560;8.244;2022-09-01T14:45:04;2.63;;;2.53;;
16294;SDS011;8255;49.560;8.244;2022-09-01T14:47:30;2.60;;;2.50;;
16294;SDS011;8255;49.560;8.244;2022-09-01T14:49:58;2.70;;;2.60;;
16294;SDS011;8255;49.560;8.244;2022-09-01T14:52:26;2.15;;;2.10;;
16294;SDS011;8255;49.560;8.244;2022-09-01T14:54:52;3.05;;;2.65;;
16294;SDS011;8255;49.560;8.244;2022-09-01T14:57:19;2.50;;;2.40;;
16294;SDS011;8255;49.560;8.244;2022-09-01T14:59:45;2.70;;;2.50;;
16294;SDS011;8255;49.560;8.244;2022-09-01T15:02:12;2.72;;;2.58;;
16294;SDS011;8255;49.560;8.244;2022-09-01T15:04:38;2.58;;;2.47;;
16294;SDS011;8255;49.560;8.244;2022-09-01T15:07:07;4.72;;;2.58;;
16294;SDS011;8255;49.560;8.244;2022-09-01T15:09:34;2.08;;;1.98;;
16294;SDS011;8255;49.560;8.244;2022-09-01T15:12:01;3.30;;;2.50;;
16294;SDS011;8255;49.560;8.244;2022-09-01T15:14:28;2.35;;;2.25;;
16294;SDS011;8255;49.560;8.244;2022-09-01T15:16:54;2.47;;;2.38;;
16294;SDS011;8255;49.560;8.244;2022-09-01T15:19:21;2.30;;;2.22;;
16294;SDS011;8255;49.560;8.244;2022-09-01T15:21:47;3.72;;;3.42;;
16294;SDS011;8255;49.560;8.244;2022-09-01T15:24:15;2.95;;;2.85;;
16294;SDS011;8255;49.560;8.244;2022-09-01T15:26:42;3.33;;;3.13;;
16294;SDS011;8255;49.560;8.244;2022-09-01T15:29:11;2.55;;;2.35;;
16294;SDS011;8255;49.560;8.244;2022-09-01T15:31:39;3.17;;;3.08;;
16294;SDS011;8255;49.560;8.244;2022-09-01T15:34:06;3.20;;;3.00;;
16294;SDS011;8255;49.560;8.244;2022-09-01T15:36:34;3.17;;;2.63;;
16294;SDS011;8255;49.560;8.244;2022-09-01T15:39:00;2.70;;;2.60;;